createdAt,value
2019-05-30T00:02:04.501Z,44.48
2019-05-30T00:04:33.989Z,44.48
2019-05-30T00:07:04.671Z,44.41
2019-05-30T00:09:34.287Z,44.48
2019-05-30T00:12:05.091Z,44.41
2019-05-30T00:14:34.684Z,44.62
2019-05-30T00:17:05.139Z,44.47
2019-05-30T00:19:34.665Z,44.41
2019-05-30T00:22:05.555Z,44.82
2019-05-30T00:24:35.195Z,44.83
2019-05-30T00:27:04.703Z,44.80
2019-05-30T00:29:34.232Z,45.04
2019-05-30T00:32:04.446Z,45.07
2019-05-30T00:34:34.355Z,45.44
2019-05-30T00:37:04.175Z,45.64
2019-05-30T00:39:33.779Z,45.87
2019-05-30T00:42:04.250Z,46.30
2019-05-30T00:44:33.880Z,46.40
2019-05-30T00:47:04.474Z,46.44
2019-05-30T00:49:34.182Z,46.44
2019-05-30T00:52:05.068Z,46.09
2019-05-30T00:54:34.926Z,46.52
2019-05-30T00:57:04.929Z,46.85
2019-05-30T00:59:34.477Z,47.27
2019-05-30T01:02:04.959Z,46.92
2019-05-30T01:04:34.607Z,47.47
2019-05-30T01:07:05.223Z,47.82
2019-05-30T01:09:34.794Z,47.79
2019-05-30T01:12:05.306Z,47.92
2019-05-30T01:14:34.782Z,48.07
2019-05-30T01:17:05.315Z,48.08
2019-05-30T01:19:35.051Z,48.24
2019-05-30T01:22:05.681Z,48.21
2019-05-30T01:24:35.216Z,48.30
2019-05-30T01:27:05.577Z,48.72
2019-05-30T01:29:35.137Z,48.56
2019-05-30T01:32:23.686Z,48.68
2019-05-30T01:34:53.191Z,48.94
2019-05-30T01:37:22.707Z,48.99
2019-05-30T01:39:53.158Z,48.92
2019-05-30T01:42:22.670Z,49.07
2019-05-30T01:44:52.189Z,49.38
2019-05-30T01:47:21.879Z,49.52
2019-05-30T01:49:51.406Z,49.49
2019-05-30T01:52:20.945Z,49.82
2019-05-30T01:54:50.440Z,49.95
2019-05-30T01:57:19.955Z,50.30
2019-05-30T01:59:49.452Z,50.39
2019-05-30T02:02:18.958Z,50.48
2019-05-30T02:04:48.452Z,50.44
2019-05-30T02:07:17.981Z,50.62
2019-05-30T02:09:47.473Z,50.67
2019-05-30T02:12:16.984Z,50.67
2019-05-30T02:14:46.469Z,50.99
2019-05-30T02:17:16.136Z,51.06
2019-05-30T02:19:45.630Z,51.16
2019-05-30T02:22:15.147Z,51.27
2019-05-30T02:24:44.647Z,51.23
2019-05-30T02:27:14.160Z,51.58
2019-05-30T02:29:43.663Z,51.78
2019-05-30T02:32:13.211Z,51.73
2019-05-30T02:34:42.728Z,52.13
2019-05-30T02:37:12.984Z,52.15
2019-05-30T02:39:42.647Z,52.44
2019-05-30T02:42:12.156Z,52.63
2019-05-30T02:44:41.677Z,52.51
2019-05-30T02:47:11.566Z,52.67
2019-05-30T02:49:41.282Z,52.68
2019-05-30T02:52:11.406Z,52.83
2019-05-30T02:54:42.003Z,52.93
2019-05-30T02:57:12.589Z,52.99
2019-05-30T02:59:42.174Z,53.07
2019-05-30T03:02:15.246Z,53.15
2019-05-30T03:04:42.916Z,53.20
2019-05-30T03:07:13.025Z,53.42
2019-05-30T03:09:42.797Z,53.25
2019-05-30T03:12:13.377Z,53.48
2019-05-30T03:14:43.231Z,53.56
2019-05-30T03:17:14.662Z,53.39
2019-05-30T03:19:44.084Z,53.32
2019-05-30T03:22:14.000Z,53.06
2019-05-30T03:24:43.599Z,53.23
2019-05-30T03:27:14.179Z,52.73
2019-05-30T03:29:43.930Z,53.15
2019-05-30T03:33:00.279Z,53.11
2019-05-30T03:34:44.936Z,53.33
2019-05-30T03:37:26.885Z,53.61
2019-05-30T03:39:45.651Z,53.59
2019-05-30T03:42:15.902Z,53.68
2019-05-30T03:44:45.789Z,53.99
2019-05-30T03:47:17.057Z,54.25
2019-05-30T03:49:48.781Z,54.40
2019-05-30T03:52:19.429Z,54.39
2019-05-30T03:54:50.639Z,54.47
2019-05-30T03:57:26.152Z,54.50
2019-05-30T04:00:03.038Z,54.43
2019-05-30T04:02:59.191Z,54.66
2019-05-30T04:05:35.097Z,55.23
2019-05-30T04:08:06.966Z,54.99
2019-05-30T04:10:38.654Z,54.68
2019-05-30T04:13:21.412Z,54.92
2019-05-30T04:15:50.988Z,54.76
2019-05-30T04:18:20.510Z,55.27
2019-05-30T04:20:50.123Z,55.11
2019-05-30T04:23:19.706Z,54.92
2019-05-30T04:25:50.278Z,54.78
2019-05-30T04:28:19.794Z,55.12
2019-05-30T04:30:49.279Z,55.33
2019-05-30T04:33:31.584Z,55.10
2019-05-30T04:35:49.996Z,55.00
2019-05-30T04:38:19.742Z,54.52
2019-05-30T04:40:49.299Z,54.49
2019-05-30T04:43:20.202Z,54.57
2019-05-30T04:45:50.028Z,54.80
2019-05-30T04:48:21.331Z,55.14
2019-05-30T04:50:50.711Z,55.21
2019-05-30T04:53:21.065Z,55.41
2019-05-30T04:55:50.681Z,55.36
2019-05-30T04:58:21.859Z,55.81
2019-05-30T05:00:51.396Z,55.55
2019-05-30T05:03:41.671Z,56.03
2019-05-30T05:05:52.629Z,55.96
2019-05-30T05:08:22.280Z,55.48
2019-05-30T05:10:51.770Z,55.29
2019-05-30T05:13:22.611Z,55.64
2019-05-30T05:15:52.254Z,55.96
2019-05-30T05:18:23.576Z,56.02
2019-05-30T05:20:54.107Z,55.96
2019-05-30T05:23:23.700Z,55.39
2019-05-30T05:26:00.934Z,54.87
2019-05-30T05:28:24.415Z,54.97
2019-05-30T05:30:53.933Z,55.15
2019-05-30T05:33:24.703Z,54.89
2019-05-30T05:35:54.327Z,55.09
2019-05-30T05:38:24.430Z,54.88
2019-05-30T05:40:54.096Z,55.04
2019-05-30T05:43:24.493Z,54.95
2019-05-30T05:45:54.155Z,54.88
2019-05-30T05:48:24.749Z,55.08
2019-05-30T05:50:54.350Z,55.58
2019-05-30T05:53:25.139Z,55.18
2019-05-30T05:55:54.675Z,55.51
2019-05-30T05:58:26.387Z,55.41
2019-05-30T06:00:56.999Z,55.10
2019-05-30T06:03:26.515Z,54.80
2019-05-30T06:05:56.010Z,55.67
2019-05-30T06:08:27.622Z,55.42
2019-05-30T06:10:57.221Z,55.33
2019-05-30T06:13:26.828Z,55.07
2019-05-30T06:15:56.363Z,55.55
2019-05-30T06:18:26.719Z,55.89
2019-05-30T06:20:56.231Z,55.10
2019-05-30T06:23:25.793Z,54.83
2019-05-30T06:25:55.295Z,55.26
2019-05-30T06:28:24.781Z,55.89
2019-05-30T06:30:54.288Z,55.45
2019-05-30T06:33:24.929Z,55.54
2019-05-30T06:35:54.468Z,55.37
2019-05-30T06:38:25.200Z,55.04
2019-05-30T06:40:54.754Z,54.68
2019-05-30T06:43:24.462Z,55.89
2019-05-30T06:45:53.979Z,54.75
2019-05-30T06:48:24.616Z,55.51
2019-05-30T06:50:54.292Z,55.83
2019-05-30T06:53:25.057Z,54.73
2019-05-30T06:55:54.589Z,55.45
2019-05-30T06:58:41.449Z,55.40
2019-05-30T07:00:55.388Z,55.29
2019-05-30T07:03:26.218Z,54.12
2019-05-30T07:05:56.363Z,54.44
2019-05-30T07:08:26.761Z,55.27
2019-05-30T07:10:56.216Z,54.83
2019-05-30T07:13:25.738Z,54.79
2019-05-30T07:15:55.241Z,53.77
2019-05-30T07:18:25.398Z,51.34
2019-05-30T07:20:54.944Z,51.34
2019-05-30T07:23:25.792Z,51.40
2019-05-30T07:25:55.306Z,51.34
2019-05-30T07:28:25.830Z,52.56
2019-05-30T07:30:55.406Z,52.36
2019-05-30T07:33:25.989Z,52.54
2019-05-30T07:35:55.507Z,51.43
2019-05-30T07:38:25.004Z,51.37
2019-05-30T07:40:54.530Z,52.27
2019-05-30T07:43:25.364Z,52.15
2019-05-30T07:45:58.151Z,52.15
2019-05-30T07:48:26.544Z,52.39
2019-05-30T07:50:56.054Z,52.29
2019-05-30T07:53:26.647Z,52.46
2019-05-30T07:55:56.221Z,52.32
2019-05-30T07:58:27.012Z,51.91
2019-05-30T08:00:56.523Z,52.60
2019-05-30T08:03:26.488Z,51.56
2019-05-30T08:05:56.023Z,51.78
2019-05-30T08:08:25.533Z,51.80
2019-05-30T08:11:08.406Z,51.35
2019-05-30T08:13:26.976Z,51.61
2019-05-30T08:15:56.547Z,51.35
2019-05-30T08:18:27.448Z,51.25
2019-05-30T08:20:57.085Z,51.40
2019-05-30T08:23:27.800Z,51.32
2019-05-30T08:25:57.526Z,51.07
2019-05-30T08:28:28.691Z,51.13
2019-05-30T08:30:58.335Z,51.76
2019-05-30T08:33:29.466Z,52.28
2019-05-30T08:36:00.766Z,52.30
2019-05-30T08:38:30.997Z,51.08
2019-05-30T08:41:00.473Z,51.72
2019-05-30T08:43:31.224Z,51.73
2019-05-30T08:46:00.758Z,52.63
2019-05-30T08:48:30.316Z,54.97
2019-05-30T08:50:59.821Z,56.38
2019-05-30T08:53:30.165Z,57.53
2019-05-30T08:55:59.729Z,57.06
2019-05-30T08:58:30.410Z,56.74
2019-05-30T09:00:59.920Z,57.19
2019-05-30T09:03:29.535Z,57.29
2019-05-30T09:06:03.799Z,56.96
2019-05-30T09:08:30.249Z,56.87
2019-05-30T09:10:59.782Z,57.04
2019-05-30T09:13:29.299Z,56.21
2019-05-30T09:15:58.854Z,55.76
2019-05-30T09:18:28.391Z,56.63
2019-05-30T09:20:57.891Z,56.75
2019-05-30T09:23:27.386Z,55.91
2019-05-30T09:25:56.895Z,55.57
2019-05-30T09:28:26.403Z,55.57
2019-05-30T09:30:55.933Z,55.64
2019-05-30T09:33:25.479Z,55.27
2019-05-30T09:35:55.019Z,54.96
2019-05-30T09:38:24.590Z,54.98
2019-05-30T09:40:54.130Z,54.57
2019-05-30T09:43:23.654Z,54.26
2019-05-30T09:45:53.169Z,53.96
2019-05-30T09:48:22.780Z,53.42
2019-05-30T09:50:52.289Z,52.69
2019-05-30T09:53:21.820Z,53.20
2019-05-30T09:55:51.651Z,53.34
2019-05-30T09:58:21.256Z,52.97
2019-05-30T10:00:52.164Z,52.81
2019-05-30T10:03:22.898Z,52.14
2019-05-30T10:05:53.404Z,52.41
2019-05-30T10:08:23.065Z,52.16
2019-05-30T10:10:53.536Z,51.53
2019-05-30T10:13:23.213Z,51.67
2019-05-30T10:15:52.728Z,52.49
2019-05-30T10:18:22.226Z,52.42
2019-05-30T10:20:53.613Z,53.05
2019-05-30T10:23:23.375Z,53.26
2019-05-30T10:25:53.392Z,52.78
2019-05-30T10:28:23.049Z,52.25
2019-05-30T10:30:57.314Z,51.74
2019-05-30T10:33:23.742Z,51.38
2019-05-30T10:35:53.549Z,52.15
2019-05-30T10:38:23.080Z,51.05
2019-05-30T10:40:52.609Z,51.06
2019-05-30T10:43:22.125Z,51.51
2019-05-30T10:45:51.625Z,50.46
2019-05-30T10:48:21.350Z,50.79
2019-05-30T10:50:50.812Z,52.21
2019-05-30T10:53:20.369Z,51.91
2019-05-30T10:55:50.146Z,51.87
2019-05-30T10:58:19.652Z,51.57
2019-05-30T11:00:53.778Z,51.62
2019-05-30T11:03:25.263Z,50.33
2019-05-30T11:06:16.642Z,49.93
2019-05-30T11:08:47.929Z,48.83
2019-05-30T11:11:18.949Z,49.53
2019-05-30T11:13:48.973Z,49.81
2019-05-30T11:16:18.495Z,47.86
2019-05-30T11:18:49.442Z,48.07
2019-05-30T11:21:19.237Z,47.93
2019-05-30T11:23:49.679Z,48.45
2019-05-30T11:26:19.966Z,47.63
2019-05-30T11:28:50.478Z,48.73
2019-05-30T11:31:20.081Z,49.34
2019-05-30T11:33:50.505Z,48.85
2019-05-30T11:36:20.284Z,49.11
2019-05-30T11:38:52.004Z,49.56
2019-05-30T11:41:20.955Z,49.07
2019-05-30T11:43:51.492Z,48.85
2019-05-30T11:46:21.104Z,48.63
2019-05-30T11:48:51.619Z,49.48
2019-05-30T11:51:21.242Z,49.95
2019-05-30T11:53:51.792Z,50.24
2019-05-30T11:56:21.344Z,50.62
2019-05-30T11:58:51.967Z,51.34
2019-05-30T12:01:21.529Z,51.01
2019-05-30T12:03:52.433Z,51.07
2019-05-30T12:06:22.028Z,51.48
2019-05-30T12:08:52.692Z,51.13
2019-05-30T12:11:22.338Z,50.85
2019-05-30T12:13:53.353Z,50.94
2019-05-30T12:16:22.958Z,51.25
2019-05-30T12:18:53.947Z,51.45
2019-05-30T12:21:23.583Z,51.60
2019-05-30T12:23:54.433Z,52.08
2019-05-30T12:26:24.063Z,51.68
2019-05-30T12:28:54.141Z,51.85
2019-05-30T12:31:23.971Z,52.18
2019-05-30T12:33:54.230Z,52.48
2019-05-30T12:36:23.767Z,52.71
2019-05-30T12:38:54.323Z,53.03
2019-05-30T12:41:23.907Z,52.63
2019-05-30T12:43:53.469Z,52.92
2019-05-30T12:46:22.965Z,52.51
2019-05-30T12:48:53.301Z,53.39
2019-05-30T12:51:22.863Z,52.22
2019-05-30T12:53:52.390Z,52.84
2019-05-30T12:56:22.051Z,51.67
2019-05-30T12:58:51.556Z,52.88
2019-05-30T13:01:21.115Z,53.28
2019-05-30T13:03:50.594Z,53.61
2019-05-30T13:06:21.171Z,53.69
2019-05-30T13:08:50.685Z,53.41
2019-05-30T13:11:20.255Z,53.99
2019-05-30T13:13:49.749Z,53.56
2019-05-30T13:16:19.312Z,53.56
2019-05-30T13:18:48.816Z,53.65
2019-05-30T13:21:18.343Z,53.71
2019-05-30T13:23:47.831Z,53.65
2019-05-30T13:26:17.430Z,53.41
2019-05-30T13:28:46.917Z,53.87
2019-05-30T13:31:16.469Z,53.78
2019-05-30T13:33:45.973Z,53.87
2019-05-30T13:36:15.482Z,53.77
2019-05-30T13:38:44.995Z,54.10
2019-05-30T13:41:14.505Z,53.90
2019-05-30T13:43:44.001Z,53.34
2019-05-30T13:46:13.512Z,54.31
2019-05-30T13:48:43.057Z,54.32
2019-05-30T13:51:12.562Z,54.65
2019-05-30T13:53:42.432Z,54.14
2019-05-30T13:56:11.956Z,54.05
2019-05-30T13:58:41.474Z,54.54
2019-05-30T14:01:13.836Z,54.52
2019-05-30T14:03:42.248Z,54.20
2019-05-30T14:06:11.734Z,53.74
2019-05-30T14:08:42.197Z,53.45
2019-05-30T14:11:13.170Z,53.77
2019-05-30T14:13:42.751Z,54.19
2019-05-30T14:16:12.266Z,54.09
2019-05-30T14:18:41.759Z,54.02
2019-05-30T14:21:11.615Z,53.05
2019-05-30T14:23:41.165Z,52.91
2019-05-30T14:26:11.751Z,53.02
2019-05-30T14:28:41.337Z,53.24
2019-05-30T14:31:12.000Z,53.47
2019-05-30T14:33:42.045Z,54.20
2019-05-30T14:36:13.340Z,53.39
2019-05-30T14:38:57.269Z,53.22
2019-05-30T14:41:14.033Z,54.24
2019-05-30T14:43:43.537Z,54.27
2019-05-30T14:46:13.065Z,53.99
2019-05-30T14:48:42.608Z,54.38
2019-05-30T14:51:12.966Z,54.17
2019-05-30T14:53:42.530Z,54.22
2019-05-30T14:56:13.528Z,54.90
2019-05-30T14:58:43.249Z,55.24
2019-05-30T15:01:13.405Z,54.63
2019-05-30T15:03:43.080Z,54.13
2019-05-30T15:06:15.768Z,54.20
2019-05-30T15:08:43.858Z,54.20
2019-05-30T15:11:13.795Z,54.28
2019-05-30T15:13:43.374Z,54.57
2019-05-30T15:16:13.872Z,54.19
2019-05-30T15:18:43.466Z,54.16
2019-05-30T15:21:13.016Z,54.98
2019-05-30T15:23:42.540Z,54.62
2019-05-30T15:26:12.204Z,54.63
2019-05-30T15:28:41.692Z,54.37
2019-05-30T15:31:12.306Z,54.43
2019-05-30T15:33:42.994Z,54.85
2019-05-30T15:36:12.773Z,55.03
2019-05-30T15:38:42.396Z,54.57
2019-05-30T15:41:13.069Z,54.32
2019-05-30T15:43:42.834Z,54.80
2019-05-30T15:46:12.338Z,54.62
2019-05-30T15:48:41.891Z,54.28
2019-05-30T15:51:12.497Z,54.65
2019-05-30T15:53:42.204Z,54.32
2019-05-30T15:56:11.721Z,54.20
2019-05-30T15:58:41.237Z,53.89
2019-05-30T16:01:11.796Z,53.78
2019-05-30T16:03:41.445Z,53.76
2019-05-30T16:06:10.965Z,53.79
2019-05-30T16:08:40.498Z,53.95
2019-05-30T16:11:10.754Z,53.81
2019-05-30T16:13:40.282Z,53.85
2019-05-30T16:16:09.890Z,53.85
2019-05-30T16:18:39.423Z,53.82
2019-05-30T16:21:08.961Z,54.37
2019-05-30T16:23:38.626Z,54.27
2019-05-30T16:26:08.164Z,54.58
2019-05-30T16:28:37.679Z,54.41
2019-05-30T16:31:07.193Z,54.15
2019-05-30T16:33:36.761Z,54.13
2019-05-30T16:36:06.355Z,54.33
2019-05-30T16:38:35.921Z,54.60
2019-05-30T16:41:05.426Z,54.32
2019-05-30T16:43:34.930Z,54.29
2019-05-30T16:46:04.712Z,54.90
2019-05-30T16:48:34.244Z,54.85
2019-05-30T16:51:03.830Z,54.53
2019-05-30T16:53:33.340Z,54.60
2019-05-30T16:56:02.862Z,54.95
2019-05-30T16:58:32.384Z,55.15
2019-05-30T17:01:01.901Z,55.14
2019-05-30T17:03:31.414Z,55.28
2019-05-30T17:06:00.916Z,55.24
2019-05-30T17:08:30.467Z,55.66
2019-05-30T17:11:01.133Z,55.23
2019-05-30T17:13:31.401Z,54.96
2019-05-30T17:16:00.940Z,55.47
2019-05-30T17:18:33.331Z,55.59
2019-05-30T17:21:02.829Z,56.04
2019-05-30T17:23:32.358Z,56.18
2019-05-30T17:26:01.883Z,55.70
2019-05-30T17:28:31.417Z,55.55
2019-05-30T17:31:00.950Z,55.35
2019-05-30T17:33:30.474Z,55.70
2019-05-30T17:35:59.994Z,55.55
2019-05-30T17:38:29.512Z,55.57
2019-05-30T17:40:59.127Z,55.42
2019-05-30T17:43:29.325Z,54.78
2019-05-30T17:45:58.907Z,55.42
2019-05-30T17:48:29.663Z,55.39
2019-05-30T17:50:59.217Z,55.21
2019-05-30T17:53:29.966Z,54.33
2019-05-30T17:55:59.627Z,54.34
2019-05-30T17:58:30.226Z,53.95
2019-05-30T18:00:59.854Z,53.95
2019-05-30T18:03:30.536Z,54.68
2019-05-30T18:06:00.130Z,54.87
2019-05-30T18:08:29.649Z,54.87
2019-05-30T18:10:59.498Z,54.47
2019-05-30T18:13:29.262Z,54.24
2019-05-30T18:15:58.884Z,54.02
2019-05-30T18:18:29.336Z,53.22
2019-05-30T18:20:58.925Z,53.73
2019-05-30T18:23:29.601Z,53.43
2019-05-30T18:25:59.248Z,52.89
2019-05-30T18:28:29.818Z,53.15
2019-05-30T18:30:59.885Z,53.17
2019-05-30T18:33:30.317Z,53.92
2019-05-30T18:35:59.792Z,53.57
2019-05-30T18:38:30.438Z,53.92
2019-05-30T18:41:10.906Z,53.72
2019-05-30T18:43:31.269Z,53.98
2019-05-30T18:46:00.869Z,53.99
2019-05-30T18:48:31.518Z,54.26
2019-05-30T18:51:01.194Z,54.04
2019-05-30T18:53:30.725Z,54.10
2019-05-30T18:56:00.298Z,53.91
2019-05-30T18:58:30.878Z,54.81
2019-05-30T19:01:00.647Z,53.71
2019-05-30T19:03:30.763Z,53.13
2019-05-30T19:06:01.754Z,53.37
2019-05-30T19:08:31.995Z,53.95
2019-05-30T19:11:01.607Z,53.95
2019-05-30T19:13:31.152Z,54.46
2019-05-30T19:16:00.637Z,54.52
2019-05-30T19:18:30.177Z,54.67
2019-05-30T19:20:59.689Z,54.46
2019-05-30T19:23:30.035Z,54.27
2019-05-30T19:25:59.624Z,54.07
2019-05-30T19:28:30.414Z,53.90
2019-05-30T19:31:00.801Z,55.72
2019-05-30T19:33:30.913Z,56.58
2019-05-30T19:36:00.552Z,57.35
2019-05-30T19:38:31.186Z,58.00
2019-05-30T19:41:00.939Z,58.19
2019-05-30T19:43:31.654Z,58.50
2019-05-30T19:46:01.290Z,59.04
2019-05-30T19:48:32.197Z,59.58
2019-05-30T19:51:01.868Z,59.59
2019-05-30T19:53:31.381Z,60.19
2019-05-30T19:56:00.894Z,60.67
2019-05-30T19:58:31.581Z,60.67
2019-05-30T20:01:01.190Z,60.92
2019-05-30T20:03:40.867Z,61.28
2019-05-30T20:06:02.866Z,61.52
2019-05-30T20:08:46.965Z,61.92
2019-05-30T20:11:04.563Z,62.21
2019-05-30T20:13:35.034Z,62.35
2019-05-30T20:16:04.541Z,62.69
2019-05-30T20:18:34.086Z,62.45
2019-05-30T20:21:03.608Z,62.36
2019-05-30T20:23:48.400Z,60.50
2019-05-30T20:26:04.372Z,60.55
2019-05-30T20:28:34.900Z,60.85
2019-05-30T20:31:04.390Z,61.17
2019-05-30T20:33:34.425Z,61.32
2019-05-30T20:36:04.924Z,61.46
2019-05-30T20:38:34.646Z,61.67
2019-05-30T20:41:04.202Z,61.76
2019-05-30T20:43:34.869Z,61.84
2019-05-30T20:46:04.502Z,61.94
2019-05-30T20:48:34.964Z,62.11
2019-05-30T20:51:04.437Z,62.02
2019-05-30T20:53:35.192Z,61.66
2019-05-30T20:56:04.951Z,61.51
2019-05-30T20:58:35.523Z,61.51
2019-05-30T21:01:05.005Z,61.72
2019-05-30T21:03:35.523Z,61.51
2019-05-30T21:06:05.165Z,61.49
2019-05-30T21:08:35.233Z,61.77
2019-05-30T21:11:04.764Z,61.99
2019-05-30T21:13:36.233Z,62.20
2019-05-30T21:16:05.863Z,62.15
2019-05-30T21:18:37.574Z,62.78
2019-05-30T21:21:07.245Z,62.76
2019-05-30T21:23:36.737Z,62.74
2019-05-30T21:26:06.280Z,63.11
2019-05-30T21:28:36.645Z,63.56
2019-05-30T21:31:07.169Z,64.07
2019-05-30T21:33:37.591Z,64.19
2019-05-30T21:36:07.266Z,64.37
2019-05-30T21:38:37.872Z,64.40
2019-05-30T21:41:08.301Z,64.88
2019-05-30T21:43:38.343Z,64.77
2019-05-30T21:46:07.819Z,65.02
2019-05-30T21:48:38.697Z,65.00
2019-05-30T21:51:08.404Z,65.14
2019-05-30T21:53:37.929Z,65.25
2019-05-30T21:56:07.732Z,65.00
2019-05-30T21:58:37.633Z,65.11
2019-05-30T22:01:36.225Z,65.08
2019-05-30T22:04:06.692Z,65.32
2019-05-30T22:06:36.563Z,65.11
2019-05-30T22:09:10.156Z,65.26
2019-05-30T22:11:39.751Z,65.51
2019-05-30T22:14:10.445Z,65.86
2019-05-30T22:16:40.057Z,66.17
2019-05-30T22:19:09.602Z,66.07
2019-05-30T22:21:39.203Z,65.76
2019-05-30T22:24:08.797Z,65.62
2019-05-30T22:26:38.309Z,65.91
2019-05-30T22:29:08.117Z,65.85
2019-05-30T22:31:37.649Z,65.80
2019-05-30T22:34:07.156Z,66.04
2019-05-30T22:36:36.676Z,65.95
2019-05-30T22:39:08.910Z,66.08
2019-05-30T22:41:38.617Z,66.19
2019-05-30T22:44:08.136Z,66.14
2019-05-30T22:46:37.641Z,65.85
2019-05-30T22:49:07.175Z,65.78
2019-05-30T22:51:36.715Z,65.90
2019-05-30T22:54:06.218Z,65.83
2019-05-30T22:56:47.335Z,65.81
2019-05-30T22:59:16.833Z,65.78
2019-05-30T23:01:46.915Z,65.66
2019-05-30T23:04:16.431Z,65.82
2019-05-30T23:06:46.303Z,66.15
2019-05-30T23:09:15.895Z,66.25
2019-05-30T23:11:45.622Z,66.27
2019-05-30T23:14:15.258Z,66.04
2019-05-30T23:16:46.040Z,66.29
2019-05-30T23:19:15.592Z,66.15
2019-05-30T23:21:45.100Z,66.28
2019-05-30T23:24:14.907Z,66.27
2019-05-30T23:26:45.414Z,66.25
2019-05-30T23:29:14.893Z,66.16
2019-05-30T23:31:44.406Z,66.39
2019-05-30T23:34:13.910Z,66.29
2019-05-30T23:36:43.415Z,66.27
2019-05-30T23:39:12.916Z,66.39
2019-05-30T23:41:42.433Z,66.31
2019-05-30T23:44:12.201Z,66.45
2019-05-30T23:46:41.816Z,66.33
2019-05-30T23:49:11.337Z,66.26
2019-05-30T23:51:40.866Z,66.09
2019-05-30T23:54:10.440Z,66.13
2019-05-30T23:56:42.287Z,65.90
2019-05-30T23:59:11.182Z,65.72
